Good Hart, MI (49737)

6:03 PM EDT on August 03, 2015 (GMT -0400)
Boyne Highlands Resort | | Change Station
CLOSE
Current Station
Personal Weather Station
Location: Harbor Springs, MI
Elevation: 787 ft
Nearby Weather Stations

Elev 787 ft 45.47 °N, 84.94 °W | Updated 3 seconds ago

Mostly Cloudy
Mostly Cloudy
65.5 °F
Feels Like 65.5 °F
N
0.0
Wind Variable Wind from East
Gusts 9.0 mph

Today
High -- | Low -- °F
--% Chance of Precip.
Yesterday
High -- | Low -- °F
Precip. -- in
6:26 AM 9:06 PM
Waning Gibbous, 83% visible
Pressure 29.78 in
Visibility 10.0 miles
Clouds Scattered Clouds 2800 ft
Mostly Cloudy 6500 ft
Overcast 9000 ft
Dew Point 57 °F
Humidity 75%
Rainfall 0.01 in
Snow Depth Not available.
UV 1 out of 12
Pollen 5.50 out of 12
Air Quality Not available.
Flu Activity Not available.
METAR KMGN 032154Z AUTO 28004KT 10SM SCT028 BKN065 OVC090 18/12 A2978 RMK AO2 T01890122

More Conditions Fewer Conditions

Pressure 29.78 in
Visibility 10.0 miles
Clouds Scattered Clouds 2800 ft
Mostly Cloudy 6500 ft
Overcast 9000 ft
Dew Point 57 °F
Humidity 75%
Rainfall 0.01 in
Snow Depth Not available.
UV 1 out of 12
Pollen 5.50 out of 12
Air Quality Not available.
Flu Activity Not available.
METAR KMGN 032154Z AUTO 28004KT 10SM SCT028 BKN065 OVC090 18/12 A2978 RMK AO2 T01890122

More Conditions Fewer Conditions

Nowcast | as of 6:00 PM EDT on August 3, 2015

At 7 PM...mostly cloudy. Scattered showers and slight chance of thunderstorms. Temperature 67. Northwest winds 9 mph. At 9 PM...mostly cloudy. Chance of showers. Temperature 62. Northwest winds 7 mph. At 11 PM...partly cloudy. Chance of showers. Temperature 58. Light winds. At 1 am...partly cloudy. Chance of showers. Temperature 56. Light winds.

×

10-Day Weather Forecast

×

Almanac

Astronomy

Aug. 03, 2015 Rise Set
Actual Time
Civil Twilight
Nautical Twilight
Astronomical Twilight
Moon
Length of Visible Light
Length of Day
Tomorrow will be .
, % of the Moon is Illuminated

Today's Extremes

State Highs State Lows

Community

WunderPhotos

Upload Photos

1,843,781 photos uploaded!

WunderBlogs® & News

Nearby

Air Quality

  Air Quality AQ Index Pollutant
Not available.

Snow Depth

Station Depth Elevation

Earthquake Activity

City Distance Mag. Time & Date
Minimum magnitude displayed is 2.5.

Coastal Water Temperatures

Place Temperature

Stations

Nearby Weather Stations

Station Location Temp. Windchill Dew Point Humidity Wind Precip. Elev Updated Type